OKCER LKTB-LIPB
Flight info
| Callsign | OKCER |
|---|---|
| Flight time | 1h 1m |
| Altitude | 26000 |
| Route | MIKOV DCT DETSA M984 NAXAV |
| Aircraft | PC12/L-SDFGRWY/S |
Departure
| Time | 2026-04-22 19:55 |
|---|---|
| Airport | Brno-Tuřany Airport (LKTB) |
Arrival
| Time | 2026-04-22 20:56 |
|---|---|
| Airport | Bolzano Airport (LIPB) |
| Time | Latitude | Longitude | Altitude | Speed | Heading |
|---|---|---|---|---|---|
| 2026-04-22 19:39 | 49.15365 | 16.69194 | 784 ft | 0 kts | 188° |
| 2026-04-22 19:53 | 49.15325 | 16.69249 | 781 ft | 11 kts | 161° |
| 2026-04-22 19:54 | 49.15266 | 16.69240 | 783 ft | 12 kts | 187° |
| 2026-04-22 19:54 | 49.15175 | 16.69222 | 780 ft | 8 kts | 187° |
| 2026-04-22 19:54 | 49.15155 | 16.69156 | 780 ft | 18 kts | 278° |
| 2026-04-22 19:54 | 49.15198 | 16.68690 | 777 ft | 69 kts | 279° |
| 2026-04-22 19:55 | 49.15248 | 16.67818 | 881 ft | 89 kts | 282° |
| 2026-04-22 19:55 | 49.15363 | 16.66812 | 1205 ft | 99 kts | 284° |
| 2026-04-22 19:55 | 49.15422 | 16.66133 | 1540 ft | 96 kts | 279° |
| 2026-04-22 19:55 | 49.15428 | 16.64722 | 2095 ft | 103 kts | 278° |
| 2026-04-22 19:56 | 49.15409 | 16.63988 | 2387 ft | 106 kts | 277° |
| 2026-04-22 19:56 | 49.15376 | 16.62837 | 2807 ft | 113 kts | 276° |
| 2026-04-22 19:56 | 49.14888 | 16.61712 | 3185 ft | 149 kts | 210° |
| 2026-04-22 19:56 | 49.13831 | 16.61485 | 3716 ft | 159 kts | 178° |
| 2026-04-22 19:57 | 49.12696 | 16.61524 | 4327 ft | 166 kts | 178° |
| 2026-04-22 19:57 | 49.11526 | 16.61506 | 4959 ft | 169 kts | 192° |
| 2026-04-22 19:57 | 49.10592 | 16.60569 | 5555 ft | 159 kts | 247° |
| 2026-04-22 19:57 | 49.10169 | 16.59055 | 6122 ft | 162 kts | 251° |
| 2026-04-22 19:58 | 49.09518 | 16.57513 | 6468 ft | 183 kts | 240° |
| 2026-04-22 19:58 | 49.08716 | 16.55900 | 6809 ft | 198 kts | 238° |
| 2026-04-22 19:58 | 49.07871 | 16.54215 | 7294 ft | 200 kts | 238° |
| 2026-04-22 19:58 | 49.07041 | 16.52543 | 7846 ft | 200 kts | 238° |
| 2026-04-22 19:59 | 49.06206 | 16.50848 | 8375 ft | 200 kts | 238° |
| 2026-04-22 20:00 | 49.01043 | 16.40407 | 11272 ft | 212 kts | 237° |
| 2026-04-22 20:00 | 49.00150 | 16.38605 | 11699 ft | 214 kts | 237° |
| 2026-04-22 20:01 | 48.99245 | 16.36779 | 12132 ft | 217 kts | 237° |
| 2026-04-22 20:01 | 48.98327 | 16.34932 | 12560 ft | 219 kts | 237° |
| 2026-04-22 20:01 | 48.97403 | 16.33072 | 12979 ft | 222 kts | 237° |
| 2026-04-22 20:01 | 48.96466 | 16.31186 | 13393 ft | 224 kts | 237° |
| 2026-04-22 20:02 | 48.95529 | 16.29303 | 13802 ft | 227 kts | 236° |
| 2026-04-22 20:02 | 48.94572 | 16.27381 | 14180 ft | 229 kts | 236° |
| 2026-04-22 20:02 | 48.93607 | 16.25443 | 14539 ft | 231 kts | 236° |
| 2026-04-22 20:02 | 48.92634 | 16.23492 | 14898 ft | 233 kts | 236° |
| 2026-04-22 20:03 | 48.91648 | 16.21516 | 15249 ft | 235 kts | 236° |
| 2026-04-22 20:03 | 48.90657 | 16.19530 | 15600 ft | 237 kts | 236° |
| 2026-04-22 20:03 | 48.89656 | 16.17529 | 15953 ft | 239 kts | 236° |
| 2026-04-22 20:03 | 48.88646 | 16.15507 | 16292 ft | 241 kts | 236° |
| 2026-04-22 20:04 | 48.87628 | 16.13473 | 16640 ft | 243 kts | 236° |
| 2026-04-22 20:04 | 48.86601 | 16.11422 | 16976 ft | 245 kts | 235° |
| 2026-04-22 20:04 | 48.85564 | 16.09354 | 17312 ft | 247 kts | 235° |
| 2026-04-22 20:04 | 48.84522 | 16.07278 | 17638 ft | 249 kts | 235° |
| 2026-04-22 20:05 | 48.83470 | 16.05181 | 17965 ft | 251 kts | 235° |
| 2026-04-22 20:05 | 48.82408 | 16.03066 | 18288 ft | 253 kts | 235° |
| 2026-04-22 20:05 | 48.81348 | 16.00959 | 18598 ft | 255 kts | 235° |
| 2026-04-22 20:05 | 48.80270 | 15.98816 | 18873 ft | 256 kts | 234° |
| 2026-04-22 20:06 | 48.79181 | 15.96654 | 19158 ft | 257 kts | 234° |
| 2026-04-22 20:06 | 48.78089 | 15.94488 | 19440 ft | 259 kts | 234° |
| 2026-04-22 20:06 | 48.76992 | 15.92312 | 19724 ft | 260 kts | 234° |
| 2026-04-22 20:06 | 48.75889 | 15.90127 | 20001 ft | 262 kts | 234° |
| 2026-04-22 20:07 | 48.74794 | 15.87960 | 20269 ft | 263 kts | 233° |
| 2026-04-22 20:07 | 48.73664 | 15.85726 | 20552 ft | 264 kts | 233° |
| 2026-04-22 20:07 | 48.72560 | 15.83543 | 20826 ft | 265 kts | 233° |
| 2026-04-22 20:07 | 48.71433 | 15.81319 | 21097 ft | 267 kts | 233° |
| 2026-04-22 20:08 | 48.70301 | 15.79085 | 21377 ft | 268 kts | 233° |
| 2026-04-22 20:08 | 48.69164 | 15.76844 | 21652 ft | 269 kts | 232° |
| 2026-04-22 20:08 | 48.68018 | 15.74587 | 21923 ft | 271 kts | 232° |
| 2026-04-22 20:08 | 48.66865 | 15.72319 | 22194 ft | 272 kts | 232° |
| 2026-04-22 20:09 | 48.65710 | 15.70047 | 22486 ft | 273 kts | 232° |
| 2026-04-22 20:09 | 48.64551 | 15.67771 | 22777 ft | 274 kts | 232° |
| 2026-04-22 20:09 | 48.63387 | 15.65487 | 23058 ft | 275 kts | 232° |
| 2026-04-22 20:09 | 48.62215 | 15.63187 | 23348 ft | 276 kts | 231° |
| 2026-04-22 20:10 | 48.61038 | 15.60881 | 23645 ft | 278 kts | 231° |
| 2026-04-22 20:10 | 48.59855 | 15.58564 | 23908 ft | 279 kts | 231° |
| 2026-04-22 20:10 | 48.58665 | 15.56237 | 24139 ft | 280 kts | 231° |
| 2026-04-22 20:10 | 48.57485 | 15.53931 | 24362 ft | 282 kts | 231° |
| 2026-04-22 20:11 | 48.56284 | 15.51586 | 24581 ft | 283 kts | 230° |
| 2026-04-22 20:11 | 48.55076 | 15.49228 | 24775 ft | 284 kts | 230° |
| 2026-04-22 20:11 | 48.53857 | 15.46852 | 24928 ft | 286 kts | 230° |
| 2026-04-22 20:11 | 48.52639 | 15.44479 | 25077 ft | 287 kts | 230° |
| 2026-04-22 20:12 | 48.51417 | 15.42100 | 25231 ft | 287 kts | 230° |
| 2026-04-22 20:12 | 48.50189 | 15.39714 | 25375 ft | 288 kts | 229° |
| 2026-04-22 20:12 | 48.48956 | 15.37319 | 25550 ft | 289 kts | 229° |
| 2026-04-22 20:12 | 48.47720 | 15.34920 | 25704 ft | 290 kts | 229° |
| 2026-04-22 20:13 | 48.46488 | 15.32530 | 25936 ft | 287 kts | 229° |
| 2026-04-22 20:13 | 48.45263 | 15.30158 | 26188 ft | 285 kts | 229° |
| 2026-04-22 20:13 | 48.44038 | 15.27790 | 26262 ft | 291 kts | 228° |
| 2026-04-22 20:13 | 48.42779 | 15.25357 | 26264 ft | 298 kts | 229° |
| 2026-04-22 20:14 | 48.41491 | 15.22867 | 26264 ft | 304 kts | 229° |
| 2026-04-22 20:14 | 48.40196 | 15.20363 | 26267 ft | 308 kts | 229° |
| 2026-04-22 20:14 | 48.38874 | 15.17813 | 26267 ft | 310 kts | 229° |
| 2026-04-22 20:14 | 48.37541 | 15.15246 | 26268 ft | 313 kts | 229° |
| 2026-04-22 20:15 | 48.36199 | 15.12661 | 26270 ft | 314 kts | 229° |
| 2026-04-22 20:15 | 48.34849 | 15.10065 | 26272 ft | 315 kts | 229° |
| 2026-04-22 20:15 | 48.33497 | 15.07466 | 26274 ft | 316 kts | 229° |
| 2026-04-22 20:15 | 48.32137 | 15.04857 | 26275 ft | 317 kts | 229° |
| 2026-04-22 20:16 | 48.30779 | 15.02253 | 26284 ft | 318 kts | 229° |
| 2026-04-22 20:16 | 48.29414 | 14.99637 | 26282 ft | 317 kts | 229° |
| 2026-04-22 20:16 | 48.28053 | 14.97032 | 26283 ft | 316 kts | 229° |
| 2026-04-22 20:16 | 48.26696 | 14.94438 | 26280 ft | 316 kts | 229° |
| 2026-04-22 20:17 | 48.25338 | 14.91844 | 26279 ft | 316 kts | 228° |
| 2026-04-22 20:17 | 48.23979 | 14.89252 | 26280 ft | 315 kts | 229° |
| 2026-04-22 20:17 | 48.22621 | 14.86662 | 26282 ft | 316 kts | 228° |
| 2026-04-22 20:17 | 48.21262 | 14.84074 | 26283 ft | 316 kts | 228° |
| 2026-04-22 20:18 | 48.19903 | 14.81489 | 26277 ft | 316 kts | 228° |
| 2026-04-22 20:18 | 48.18561 | 14.78937 | 26278 ft | 316 kts | 228° |
| 2026-04-22 20:18 | 48.17201 | 14.76352 | 26278 ft | 316 kts | 229° |
| 2026-04-22 20:18 | 48.15847 | 14.73755 | 26278 ft | 316 kts | 229° |
| 2026-04-22 20:19 | 48.14495 | 14.71161 | 26279 ft | 316 kts | 228° |
| 2026-04-22 20:19 | 48.13118 | 14.68600 | 26277 ft | 316 kts | 228° |
| 2026-04-22 20:19 | 48.11740 | 14.66029 | 26278 ft | 316 kts | 229° |
| 2026-04-22 20:19 | 48.10380 | 14.63448 | 26261 ft | 316 kts | 229° |
| 2026-04-22 20:20 | 48.09025 | 14.60873 | 26264 ft | 314 kts | 229° |
| 2026-04-22 20:20 | 48.07685 | 14.58345 | 26264 ft | 314 kts | 229° |
| 2026-04-22 20:20 | 48.06324 | 14.55788 | 26264 ft | 313 kts | 229° |
| 2026-04-22 20:20 | 48.04971 | 14.53241 | 26263 ft | 313 kts | 229° |
| 2026-04-22 20:21 | 48.03619 | 14.50695 | 26264 ft | 313 kts | 229° |
| 2026-04-22 20:21 | 48.02260 | 14.48141 | 26261 ft | 312 kts | 229° |
| 2026-04-22 20:21 | 48.00909 | 14.45606 | 26267 ft | 312 kts | 229° |
| 2026-04-22 20:21 | 47.99557 | 14.43069 | 26265 ft | 312 kts | 228° |
| 2026-04-22 20:22 | 47.98204 | 14.40534 | 26262 ft | 312 kts | 228° |
| 2026-04-22 20:22 | 47.96854 | 14.38006 | 26264 ft | 311 kts | 228° |
| 2026-04-22 20:22 | 47.95521 | 14.35512 | 26263 ft | 311 kts | 229° |
| 2026-04-22 20:22 | 47.94153 | 14.32956 | 26264 ft | 311 kts | 228° |
| 2026-04-22 20:23 | 47.92816 | 14.30459 | 26269 ft | 312 kts | 228° |
| 2026-04-22 20:23 | 47.91462 | 14.27934 | 26267 ft | 312 kts | 228° |
| 2026-04-22 20:23 | 47.90108 | 14.25411 | 26270 ft | 312 kts | 228° |
| 2026-04-22 20:23 | 47.88753 | 14.22887 | 26270 ft | 312 kts | 228° |
| 2026-04-22 20:24 | 47.87394 | 14.20360 | 26267 ft | 312 kts | 228° |
| 2026-04-22 20:24 | 47.86038 | 14.17840 | 26267 ft | 312 kts | 228° |
| 2026-04-22 20:24 | 47.84677 | 14.15312 | 26266 ft | 312 kts | 228° |
| 2026-04-22 20:24 | 47.83316 | 14.12788 | 26274 ft | 312 kts | 228° |
| 2026-04-22 20:25 | 47.81952 | 14.10260 | 26274 ft | 313 kts | 228° |
| 2026-04-22 20:25 | 47.80609 | 14.07772 | 26277 ft | 312 kts | 228° |
| 2026-04-22 20:25 | 47.79245 | 14.05251 | 26276 ft | 312 kts | 228° |
| 2026-04-22 20:25 | 47.77884 | 14.02736 | 26276 ft | 311 kts | 229° |
| 2026-04-22 20:26 | 47.76525 | 14.00226 | 26277 ft | 310 kts | 230° |
| 2026-04-22 20:26 | 47.75176 | 13.97736 | 26275 ft | 309 kts | 230° |
| 2026-04-22 20:26 | 47.73827 | 13.95250 | 26278 ft | 308 kts | 230° |
| 2026-04-22 20:26 | 47.72482 | 13.92774 | 26279 ft | 308 kts | 230° |
| 2026-04-22 20:27 | 47.71138 | 13.90295 | 26290 ft | 308 kts | 230° |
| 2026-04-22 20:27 | 47.69796 | 13.87808 | 26285 ft | 308 kts | 230° |
| 2026-04-22 20:27 | 47.68478 | 13.85354 | 26285 ft | 307 kts | 230° |
| 2026-04-22 20:27 | 47.67148 | 13.82871 | 26286 ft | 307 kts | 230° |
| 2026-04-22 20:28 | 47.65825 | 13.80391 | 26285 ft | 306 kts | 230° |
| 2026-04-22 20:28 | 47.64512 | 13.77918 | 26287 ft | 306 kts | 230° |
| 2026-04-22 20:28 | 47.63198 | 13.75435 | 26289 ft | 306 kts | 230° |
| 2026-04-22 20:28 | 47.61881 | 13.72937 | 26291 ft | 306 kts | 230° |
| 2026-04-22 20:29 | 47.60567 | 13.70436 | 26301 ft | 307 kts | 231° |
| 2026-04-22 20:29 | 47.59258 | 13.67938 | 26301 ft | 306 kts | 232° |
| 2026-04-22 20:29 | 47.57959 | 13.65452 | 26301 ft | 304 kts | 232° |
| 2026-04-22 20:29 | 47.56665 | 13.62968 | 26304 ft | 306 kts | 232° |
| 2026-04-22 20:30 | 47.55367 | 13.60466 | 26306 ft | 306 kts | 232° |
| 2026-04-22 20:30 | 47.54087 | 13.57990 | 26308 ft | 307 kts | 232° |
| 2026-04-22 20:30 | 47.52791 | 13.55474 | 26306 ft | 308 kts | 232° |
| 2026-04-22 20:30 | 47.51499 | 13.52953 | 26304 ft | 307 kts | 232° |
| 2026-04-22 20:31 | 47.50212 | 13.50433 | 26307 ft | 308 kts | 232° |
| 2026-04-22 20:31 | 47.48926 | 13.47906 | 26306 ft | 307 kts | 233° |
| 2026-04-22 20:31 | 47.47643 | 13.45373 | 26306 ft | 307 kts | 233° |
| 2026-04-22 20:31 | 47.46367 | 13.42844 | 26296 ft | 307 kts | 233° |
| 2026-04-22 20:32 | 47.45094 | 13.40310 | 26294 ft | 307 kts | 233° |
| 2026-04-22 20:32 | 47.43826 | 13.37777 | 26307 ft | 306 kts | 234° |
| 2026-04-22 20:32 | 47.42566 | 13.35252 | 26305 ft | 304 kts | 234° |
| 2026-04-22 20:32 | 47.41312 | 13.32733 | 26308 ft | 303 kts | 234° |
| 2026-04-22 20:33 | 47.40083 | 13.30259 | 26306 ft | 303 kts | 234° |
| 2026-04-22 20:33 | 47.38837 | 13.27739 | 26303 ft | 304 kts | 235° |
| 2026-04-22 20:33 | 47.37592 | 13.25212 | 26302 ft | 304 kts | 235° |
| 2026-04-22 20:33 | 47.36352 | 13.22685 | 26306 ft | 303 kts | 235° |
| 2026-04-22 20:34 | 47.35117 | 13.20157 | 26307 ft | 303 kts | 235° |
| 2026-04-22 20:34 | 47.33886 | 13.17627 | 26309 ft | 304 kts | 235° |
| 2026-04-22 20:34 | 47.32654 | 13.15086 | 26307 ft | 304 kts | 235° |
| 2026-04-22 20:34 | 47.31446 | 13.12582 | 26308 ft | 303 kts | 236° |
| 2026-04-22 20:35 | 47.30225 | 13.10043 | 26305 ft | 303 kts | 236° |
| 2026-04-22 20:35 | 47.29007 | 13.07498 | 26308 ft | 304 kts | 236° |
| 2026-04-22 20:35 | 47.27791 | 13.04947 | 26308 ft | 305 kts | 236° |
| 2026-04-22 20:35 | 47.26574 | 13.02384 | 26313 ft | 305 kts | 237° |
| 2026-04-22 20:36 | 47.25369 | 12.99837 | 26311 ft | 302 kts | 237° |
| 2026-04-22 20:36 | 47.24165 | 12.97317 | 26315 ft | 300 kts | 234° |
| 2026-04-22 20:36 | 47.22848 | 12.94940 | 26309 ft | 299 kts | 234° |
| 2026-04-22 20:36 | 47.21667 | 12.92426 | 26306 ft | 299 kts | 238° |
| 2026-04-22 20:37 | 47.20496 | 12.89901 | 26310 ft | 299 kts | 236° |
| 2026-04-22 20:37 | 47.19262 | 12.87444 | 26307 ft | 298 kts | 234° |
| 2026-04-22 20:37 | 47.18017 | 12.85013 | 26310 ft | 298 kts | 235° |
| 2026-04-22 20:37 | 47.16789 | 12.82560 | 26303 ft | 298 kts | 236° |
| 2026-04-22 20:38 | 47.15570 | 12.80100 | 26296 ft | 297 kts | 236° |
| 2026-04-22 20:38 | 47.14361 | 12.77679 | 26298 ft | 297 kts | 235° |
| 2026-04-22 20:38 | 47.13132 | 12.75230 | 26304 ft | 298 kts | 235° |
| 2026-04-22 20:38 | 47.11906 | 12.72787 | 26297 ft | 297 kts | 235° |
| 2026-04-22 20:39 | 47.10677 | 12.70336 | 26297 ft | 297 kts | 235° |
| 2026-04-22 20:39 | 47.09454 | 12.67899 | 26299 ft | 297 kts | 236° |
| 2026-04-22 20:39 | 47.08229 | 12.65463 | 26303 ft | 296 kts | 236° |
| 2026-04-22 20:39 | 47.07011 | 12.63041 | 26293 ft | 293 kts | 236° |
| 2026-04-22 20:40 | 47.05813 | 12.60659 | 26091 ft | 292 kts | 236° |
| 2026-04-22 20:40 | 47.04602 | 12.58247 | 25714 ft | 295 kts | 236° |
| 2026-04-22 20:40 | 47.03380 | 12.55818 | 25335 ft | 295 kts | 237° |
| 2026-04-22 20:40 | 47.02259 | 12.53303 | 24944 ft | 294 kts | 241° |
| 2026-04-22 20:41 | 47.01185 | 12.50774 | 24573 ft | 293 kts | 240° |
| 2026-04-22 20:41 | 47.00066 | 12.48280 | 24162 ft | 292 kts | 238° |
| 2026-04-22 20:41 | 46.98929 | 12.45819 | 23742 ft | 292 kts | 238° |
| 2026-04-22 20:41 | 46.97801 | 12.43349 | 23258 ft | 292 kts | 239° |
| 2026-04-22 20:42 | 46.96682 | 12.40870 | 22780 ft | 292 kts | 239° |
| 2026-04-22 20:42 | 46.95576 | 12.38425 | 22305 ft | 292 kts | 238° |
| 2026-04-22 20:42 | 46.94449 | 12.35949 | 21850 ft | 291 kts | 238° |
| 2026-04-22 20:42 | 46.93327 | 12.33488 | 21371 ft | 289 kts | 239° |
| 2026-04-22 20:43 | 46.92216 | 12.31048 | 20929 ft | 287 kts | 240° |
| 2026-04-22 20:43 | 46.91117 | 12.28634 | 20491 ft | 284 kts | 239° |
| 2026-04-22 20:43 | 46.90023 | 12.26232 | 20060 ft | 283 kts | 239° |
| 2026-04-22 20:43 | 46.88928 | 12.23834 | 19633 ft | 284 kts | 239° |
| 2026-04-22 20:44 | 46.87834 | 12.21438 | 19212 ft | 283 kts | 239° |
| 2026-04-22 20:44 | 46.86741 | 12.19051 | 18800 ft | 283 kts | 239° |
| 2026-04-22 20:44 | 46.85649 | 12.16665 | 18387 ft | 282 kts | 239° |
| 2026-04-22 20:44 | 46.84560 | 12.14288 | 17923 ft | 281 kts | 238° |
| 2026-04-22 20:45 | 46.83838 | 12.12714 | 17610 ft | 281 kts | 239° |
| 2026-04-22 20:45 | 46.82751 | 12.10343 | 17158 ft | 281 kts | 238° |
| 2026-04-22 20:45 | 46.81660 | 12.07968 | 16695 ft | 282 kts | 238° |
| 2026-04-22 20:45 | 46.80214 | 12.04824 | 16111 ft | 281 kts | 238° |
| 2026-04-22 20:46 | 46.78392 | 12.00864 | 15387 ft | 280 kts | 238° |
| 2026-04-22 20:46 | 46.77304 | 11.98504 | 14968 ft | 280 kts | 238° |
| 2026-04-22 20:46 | 46.76216 | 11.96145 | 14550 ft | 280 kts | 238° |
| 2026-04-22 20:47 | 46.75127 | 11.93785 | 14151 ft | 280 kts | 238° |
| 2026-04-22 20:47 | 46.74043 | 11.91440 | 13728 ft | 278 kts | 238° |
| 2026-04-22 20:47 | 46.72967 | 11.89111 | 13288 ft | 275 kts | 238° |
| 2026-04-22 20:47 | 46.71904 | 11.86815 | 12873 ft | 273 kts | 238° |
| 2026-04-22 20:48 | 46.70844 | 11.84525 | 12441 ft | 271 kts | 237° |
| 2026-04-22 20:48 | 46.69797 | 11.82266 | 12025 ft | 268 kts | 237° |
| 2026-04-22 20:48 | 46.68748 | 11.80029 | 11465 ft | 266 kts | 236° |
| 2026-04-22 20:48 | 46.67717 | 11.77855 | 11003 ft | 262 kts | 238° |
| 2026-04-22 20:49 | 46.66804 | 11.75600 | 10518 ft | 256 kts | 244° |
| 2026-04-22 20:49 | 46.66007 | 11.73321 | 10069 ft | 250 kts | 244° |
| 2026-04-22 20:49 | 46.65221 | 11.71068 | 9474 ft | 249 kts | 245° |
| 2026-04-22 20:49 | 46.64444 | 11.68852 | 9069 ft | 239 kts | 242° |
| 2026-04-22 20:50 | 46.63593 | 11.66815 | 8611 ft | 235 kts | 237° |
| 2026-04-22 20:50 | 46.62635 | 11.64887 | 8210 ft | 233 kts | 234° |
| 2026-04-22 20:50 | 46.61643 | 11.63028 | 7810 ft | 233 kts | 233° |
| 2026-04-22 20:50 | 46.60662 | 11.61170 | 7423 ft | 228 kts | 234° |
| 2026-04-22 20:51 | 46.59699 | 11.59339 | 6941 ft | 230 kts | 233° |
| 2026-04-22 20:51 | 46.58718 | 11.57540 | 6744 ft | 224 kts | 232° |
| 2026-04-22 20:51 | 46.57746 | 11.55835 | 6736 ft | 218 kts | 227° |
| 2026-04-22 20:51 | 46.56625 | 11.54350 | 6654 ft | 217 kts | 220° |
| 2026-04-22 20:52 | 46.55454 | 11.52960 | 6550 ft | 218 kts | 218° |
| 2026-04-22 20:52 | 46.54269 | 11.51595 | 6490 ft | 215 kts | 218° |
| 2026-04-22 20:52 | 46.53137 | 11.50156 | 6212 ft | 220 kts | 224° |
| 2026-04-22 20:52 | 46.52144 | 11.48423 | 5914 ft | 226 kts | 233° |
| 2026-04-22 20:53 | 46.51322 | 11.46427 | 5556 ft | 233 kts | 241° |
| 2026-04-22 20:53 | 46.50667 | 11.44292 | 5386 ft | 229 kts | 248° |
| 2026-04-22 20:53 | 46.50186 | 11.42150 | 5066 ft | 216 kts | 254° |
| 2026-04-22 20:53 | 46.49846 | 11.40069 | 4372 ft | 215 kts | 258° |
| 2026-04-22 20:54 | 46.49583 | 11.37944 | 3782 ft | 210 kts | 261° |
| 2026-04-22 20:54 | 46.49366 | 11.35878 | 3220 ft | 205 kts | 260° |
| 2026-04-22 20:54 | 46.48992 | 11.33926 | 2717 ft | 198 kts | 246° |
| 2026-04-22 20:54 | 46.48296 | 11.32276 | 2381 ft | 185 kts | 228° |
| 2026-04-22 20:55 | 46.47323 | 11.31136 | 2043 ft | 176 kts | 209° |
| 2026-04-22 20:55 | 46.46238 | 11.30507 | 1837 ft | 161 kts | 193° |
| 2026-04-22 20:55 | 46.45218 | 11.30534 | 1588 ft | 137 kts | 161° |
| 2026-04-22 20:55 | 46.44473 | 11.31181 | 1418 ft | 112 kts | 130° |
| 2026-04-22 20:56 | 46.44378 | 11.32098 | 1221 ft | 95 kts | 57° |
| 2026-04-22 20:56 | 46.44978 | 11.32369 | 931 ft | 96 kts | 4° |
| 2026-04-22 20:56 | 46.45594 | 11.32523 | 784 ft | 81 kts | 8° |
| 2026-04-22 20:56 | 46.45942 | 11.32617 | 784 ft | 28 kts | 9° |
| 2026-04-22 20:57 | 46.46134 | 11.32661 | 785 ft | 26 kts | 13° |
| 2026-04-22 20:57 | 46.46245 | 11.32703 | 784 ft | 7 kts | 56° |
| 2026-04-22 20:57 | 46.46243 | 11.32742 | 784 ft | 1 kts | 102° |
| 2026-04-22 20:57 | 46.46242 | 11.32748 | 784 ft | 0 kts | 101° |
| 2026-04-22 20:58 | 46.46241 | 11.32753 | 784 ft | 4 kts | 100° |
| 2026-04-22 20:58 | 46.46261 | 11.32825 | 783 ft | 12 kts | 5° |
| 2026-04-22 20:58 | 46.46349 | 11.32848 | 783 ft | 13 kts | 12° |
| 2026-04-22 20:58 | 46.46413 | 11.32891 | 783 ft | 7 kts | 100° |
| 2026-04-22 20:59 | 46.46406 | 11.32933 | 783 ft | 0 kts | 100° |